createdAt,value
2023-02-13T00:00:34.362Z,17.02
2023-02-13T00:03:01.439Z,17.20
2023-02-13T00:05:28.494Z,18.05
2023-02-13T00:07:55.559Z,17.92
2023-02-13T00:10:22.647Z,18.83
2023-02-13T00:12:49.772Z,19.42
2023-02-13T00:15:16.865Z,18.52
2023-02-13T00:17:43.897Z,19.48
2023-02-13T00:20:11.189Z,18.60
2023-02-13T00:22:38.608Z,20.77
2023-02-13T00:25:06.086Z,22.38
2023-02-13T00:27:33.139Z,23.48
2023-02-13T00:30:00.180Z,22.55
2023-02-13T00:32:27.184Z,23.77
2023-02-13T00:34:54.244Z,24.75
2023-02-13T00:37:21.324Z,25.27
2023-02-13T00:39:48.342Z,27.85
2023-02-13T00:42:15.415Z,25.00
2023-02-13T00:44:42.532Z,24.33
2023-02-13T00:47:09.867Z,25.40
2023-02-13T00:49:36.933Z,28.40
2023-02-13T00:52:04.043Z,25.55
2023-02-13T00:54:31.121Z,26.60
2023-02-13T00:56:58.147Z,24.17
2023-02-13T00:59:25.187Z,27.98
2023-02-13T01:01:52.230Z,27.42
2023-02-13T01:04:19.256Z,27.30
2023-02-13T01:06:46.283Z,23.08
2023-02-13T01:09:13.304Z,25.10
2023-02-13T01:11:40.347Z,26.65
2023-02-13T01:14:07.384Z,24.63
2023-02-13T01:16:34.402Z,22.20
2023-02-13T01:19:01.430Z,22.40
2023-02-13T01:21:28.485Z,22.90
2023-02-13T01:23:55.564Z,24.33
2023-02-13T01:26:23.394Z,25.35
2023-02-13T01:28:52.737Z,22.40
2023-02-13T01:31:19.926Z,22.73
2023-02-13T01:33:47.045Z,20.55
2023-02-13T01:36:14.443Z,16.35
2023-02-13T01:38:41.759Z,16.92
2023-02-13T01:41:08.960Z,16.73
2023-02-13T01:43:45.228Z,17.77
2023-02-13T01:46:12.476Z,19.17
2023-02-13T01:48:39.555Z,20.10
2023-02-13T01:51:12.204Z,22.08
2023-02-13T01:53:47.512Z,20.85
2023-02-13T01:56:19.118Z,22.08
2023-02-13T01:58:46.713Z,21.67
2023-02-13T02:08:11.708Z,20.65
2023-02-13T02:10:38.806Z,20.27
2023-02-13T02:13:07.787Z,19.38
2023-02-13T02:15:35.356Z,18.58
2023-02-13T02:18:02.363Z,18.85
2023-02-13T02:20:54.627Z,20.40
2023-02-13T02:23:31.062Z,17.83
2023-02-13T02:26:10.235Z,20.90
2023-02-13T02:28:43.144Z,18.38
2023-02-13T02:31:10.471Z,17.38
2023-02-13T02:33:56.202Z,20.52
2023-02-13T02:36:25.431Z,18.08
2023-02-13T02:39:01.399Z,20.27
2023-02-13T02:41:43.313Z,20.45
2023-02-13T02:44:16.884Z,21.70
2023-02-13T02:47:10.798Z,19.60
2023-02-13T02:49:56.856Z,23.42
2023-02-13T02:52:26.893Z,20.48
2023-02-13T02:55:14.241Z,20.15
2023-02-13T02:58:09.702Z,21.35
2023-02-13T03:00:56.048Z,23.80
2023-02-13T03:03:42.701Z,20.70
2023-02-13T03:06:39.242Z,23.10
2023-02-13T03:09:26.188Z,20.83
2023-02-13T03:12:12.848Z,20.85
2023-02-13T03:14:39.923Z,22.75
2023-02-13T03:17:25.595Z,19.40
2023-02-13T03:20:20.227Z,23.48
2023-02-13T03:22:51.997Z,22.08
2023-02-13T03:25:30.262Z,24.52
2023-02-13T03:28:22.206Z,21.90
2023-02-13T03:31:08.317Z,20.27
2023-02-13T03:33:48.132Z,21.73
2023-02-13T03:36:59.789Z,23.67
2023-02-13T03:39:26.805Z,21.45
2023-02-13T03:41:58.945Z,22.85
2023-02-13T03:44:41.175Z,21.90
2023-02-13T03:47:08.864Z,23.17
2023-02-13T03:49:59.802Z,23.67
2023-02-13T03:52:45.587Z,22.67
2023-02-13T03:55:31.187Z,21.88
2023-02-13T03:58:17.899Z,22.35
2023-02-13T04:00:45.650Z,20.52
2023-02-13T04:03:17.882Z,22.33
2023-02-13T04:05:46.041Z,25.50
2023-02-13T04:08:13.113Z,25.60
2023-02-13T04:10:44.159Z,24.35
2023-02-13T04:13:16.256Z,22.77
2023-02-13T04:15:44.574Z,23.55
2023-02-13T04:18:16.031Z,20.73
2023-02-13T04:20:43.045Z,21.98
2023-02-13T04:23:10.624Z,23.10
2023-02-13T04:25:38.600Z,20.83
2023-02-13T04:28:05.774Z,23.08
2023-02-13T04:30:32.879Z,23.17
2023-02-13T04:32:59.998Z,21.63
2023-02-13T04:35:27.109Z,24.40
2023-02-13T04:37:54.129Z,23.75
2023-02-13T04:40:21.162Z,23.63
2023-02-13T04:42:51.160Z,22.83
2023-02-13T04:45:18.300Z,24.42
2023-02-13T04:47:50.474Z,26.65
2023-02-13T04:50:17.621Z,23.83
2023-02-13T04:52:44.725Z,23.85
2023-02-13T04:55:11.774Z,28.80
2023-02-13T04:57:38.792Z,25.45
2023-02-13T05:00:06.739Z,28.70
2023-02-13T05:02:33.776Z,25.95
2023-02-13T05:05:00.840Z,28.08
2023-02-13T05:07:27.968Z,24.17
2023-02-13T05:09:55.053Z,26.35
2023-02-13T05:12:22.060Z,25.17
2023-02-13T05:14:49.252Z,26.60
2023-02-13T05:17:16.344Z,27.10
2023-02-13T05:19:43.425Z,30.35
2023-02-13T05:22:28.840Z,29.77
2023-02-13T05:24:56.050Z,27.73
2023-02-13T05:27:23.081Z,29.80
2023-02-13T05:29:50.168Z,29.15
2023-02-13T05:32:17.420Z,30.48
2023-02-13T05:34:44.524Z,32.28
2023-02-13T05:37:11.562Z,32.60
2023-02-13T05:39:38.731Z,33.60
2023-02-13T05:42:05.895Z,32.97
2023-02-13T05:44:33.068Z,32.67
2023-02-13T05:47:00.119Z,35.63
2023-02-13T05:49:27.209Z,33.58
2023-02-13T05:51:54.243Z,35.70
2023-02-13T05:54:21.601Z,38.47
2023-02-13T05:56:48.753Z,37.22
2023-02-13T05:59:15.881Z,37.35
2023-02-13T06:01:42.959Z,36.85
2023-02-13T06:04:10.090Z,33.38
2023-02-13T06:06:37.299Z,37.08
2023-02-13T06:09:04.444Z,37.58
2023-02-13T06:11:31.500Z,41.60
2023-02-13T06:13:58.585Z,37.22
2023-02-13T06:16:25.745Z,38.30
2023-02-13T06:18:52.829Z,37.53
2023-02-13T06:21:19.928Z,37.60
2023-02-13T06:23:47.005Z,38.58
2023-02-13T06:26:14.045Z,38.00
2023-02-13T06:28:41.256Z,39.33
2023-02-13T06:31:08.454Z,40.97
2023-02-13T06:33:35.658Z,45.08
2023-02-13T06:36:02.727Z,50.70
2023-02-13T06:38:29.879Z,48.90
2023-02-13T06:41:00.071Z,51.03
2023-02-13T06:43:27.502Z,55.83
2023-02-13T06:45:54.572Z,48.33
2023-02-13T06:48:21.707Z,48.72
2023-02-13T06:50:48.785Z,47.90
2023-02-13T06:53:15.930Z,45.85
2023-02-13T06:55:42.984Z,44.22
2023-02-13T06:58:10.037Z,48.33
2023-02-13T07:00:37.495Z,50.08
2023-02-13T07:03:05.429Z,56.30
2023-02-13T07:05:32.883Z,57.30
2023-02-13T07:07:59.944Z,58.28
2023-02-13T07:10:27.139Z,52.50
2023-02-13T07:13:05.459Z,46.58
2023-02-13T07:15:33.801Z,52.60
2023-02-13T07:18:01.001Z,46.85
2023-02-13T07:20:28.208Z,45.80
2023-02-13T07:22:58.971Z,50.13
2023-02-13T07:25:26.038Z,40.88
2023-02-13T07:27:53.040Z,40.30
2023-02-13T07:30:20.149Z,36.75
2023-02-13T07:32:47.298Z,33.22
2023-02-13T07:35:14.355Z,30.30
2023-02-13T07:37:41.426Z,32.63
2023-02-13T07:40:08.838Z,30.67
2023-02-13T07:42:35.985Z,26.02
2023-02-13T07:45:05.655Z,25.88
2023-02-13T07:47:34.008Z,22.13
2023-02-13T07:50:01.151Z,20.90
2023-02-13T07:52:28.223Z,22.48
2023-02-13T07:54:55.340Z,22.60
2023-02-13T07:57:22.378Z,21.55
2023-02-13T07:59:49.415Z,25.95
2023-02-13T08:02:16.502Z,23.35
2023-02-13T08:04:46.628Z,21.67
2023-02-13T08:07:14.339Z,23.13
2023-02-13T08:10:00.177Z,20.55
2023-02-13T08:12:27.254Z,20.50
2023-02-13T08:14:54.540Z,20.90
2023-02-13T08:17:21.576Z,24.25
2023-02-13T08:19:48.688Z,21.20
2023-02-13T08:22:15.824Z,26.25
2023-02-13T08:24:42.838Z,22.58
2023-02-13T08:27:12.592Z,21.25
2023-02-13T08:29:39.658Z,21.33
2023-02-13T08:32:07.138Z,19.60
2023-02-13T08:34:34.260Z,17.73
2023-02-13T08:37:02.188Z,19.52
2023-02-13T08:39:29.561Z,19.30
2023-02-13T08:41:56.581Z,17.20
2023-02-13T08:44:23.629Z,14.18
2023-02-13T08:46:50.780Z,13.48
2023-02-13T08:49:17.897Z,16.88
2023-02-13T08:51:44.978Z,17.33
2023-02-13T08:54:12.062Z,18.30
2023-02-13T08:56:39.244Z,14.48
2023-02-13T08:59:06.336Z,14.57
2023-02-13T09:01:33.455Z,13.90
2023-02-13T09:04:00.612Z,14.82
2023-02-13T09:06:28.364Z,15.57
2023-02-13T09:08:55.404Z,11.38
2023-02-13T09:11:23.452Z,14.10
2023-02-13T09:13:51.000Z,14.23
2023-02-13T09:16:18.090Z,12.38
2023-02-13T09:18:47.304Z,12.75
2023-02-13T09:21:14.362Z,11.13
2023-02-13T09:23:41.609Z,8.95
2023-02-13T09:26:09.876Z,11.05
2023-02-13T09:28:37.194Z,11.27
2023-02-13T09:31:11.156Z,9.30
2023-02-13T09:33:38.305Z,9.30
2023-02-13T09:36:08.890Z,9.20
2023-02-13T09:38:36.081Z,10.63
2023-02-13T09:41:04.150Z,12.25
2023-02-13T09:43:31.869Z,10.85
2023-02-13T09:46:03.190Z,12.07
2023-02-13T09:48:31.106Z,11.18
2023-02-13T09:50:58.590Z,10.95
2023-02-13T09:53:25.844Z,11.38
2023-02-13T09:55:59.230Z,11.93
2023-02-13T09:58:40.664Z,10.30
2023-02-13T10:03:46.367Z,10.25
2023-02-13T10:06:19.247Z,9.75
2023-02-13T10:08:49.913Z,9.60
2023-02-13T10:11:23.050Z,11.23
2023-02-13T10:13:57.404Z,12.85
2023-02-13T10:16:37.858Z,10.40
2023-02-13T10:19:06.802Z,10.85
2023-02-13T10:21:35.104Z,8.88
2023-02-13T10:24:12.124Z,13.40
2023-02-13T10:26:43.152Z,11.23
2023-02-13T10:29:31.735Z,10.90
2023-02-13T10:31:59.499Z,10.52
2023-02-13T10:34:27.046Z,11.23
2023-02-13T10:36:54.210Z,9.23
2023-02-13T10:39:24.939Z,8.55
2023-02-13T10:42:30.910Z,9.65
2023-02-13T10:45:04.106Z,10.88
2023-02-13T10:47:35.820Z,10.00
2023-02-13T10:50:05.939Z,9.70
2023-02-13T10:52:41.834Z,8.18
2023-02-13T10:55:27.434Z,12.35
2023-02-13T10:58:13.336Z,9.98
2023-02-13T11:01:09.710Z,8.20
2023-02-13T11:03:36.780Z,9.00
2023-02-13T11:06:06.339Z,9.38
2023-02-13T11:08:39.611Z,8.38
2023-02-13T11:11:26.708Z,8.05
2023-02-13T11:14:07.961Z,9.07
2023-02-13T11:16:44.390Z,10.13
2023-02-13T11:19:29.969Z,8.07
2023-02-13T11:21:58.622Z,7.00
2023-02-13T11:24:26.260Z,8.75
2023-02-13T11:27:00.732Z,7.60
2023-02-13T11:29:31.543Z,10.50
2023-02-13T11:32:06.294Z,9.30
2023-02-13T11:34:33.647Z,8.75
2023-02-13T11:37:13.071Z,9.70
2023-02-13T11:39:41.246Z,12.77
2023-02-13T11:42:14.998Z,10.50
2023-02-13T11:44:42.707Z,8.13
2023-02-13T11:47:09.819Z,9.25
2023-02-13T11:49:39.774Z,7.40
2023-02-13T11:52:07.550Z,8.27
2023-02-13T11:54:35.601Z,8.40
2023-02-13T11:57:05.460Z,7.68
2023-02-13T12:02:19.556Z,7.95
2023-02-13T12:04:46.846Z,9.52
2023-02-13T12:07:20.987Z,9.48
2023-02-13T12:09:48.876Z,8.95
2023-02-13T12:12:20.316Z,9.25
2023-02-13T12:14:47.456Z,7.57
2023-02-13T12:17:30.921Z,6.80
2023-02-13T12:19:59.073Z,9.27
2023-02-13T12:22:45.573Z,8.70
2023-02-13T12:25:20.454Z,6.80
2023-02-13T12:27:50.680Z,6.70
2023-02-13T12:30:29.758Z,6.80
2023-02-13T12:33:16.799Z,9.38
2023-02-13T12:35:53.084Z,6.63
2023-02-13T12:38:23.190Z,7.47
2023-02-13T12:41:00.040Z,7.28
2023-02-13T12:43:46.272Z,8.27
2023-02-13T12:46:19.457Z,8.35
2023-02-13T12:48:50.068Z,7.35
2023-02-13T12:51:23.333Z,7.60
2023-02-13T12:54:10.965Z,7.72
2023-02-13T12:56:47.314Z,6.38
2023-02-13T12:59:20.100Z,6.38
2023-02-13T13:01:47.202Z,7.47
2023-02-13T13:04:40.405Z,7.15
2023-02-13T13:07:27.718Z,9.02
2023-02-13T13:10:04.257Z,8.07
2023-02-13T13:12:40.602Z,7.80
2023-02-13T13:15:12.845Z,12.75
2023-02-13T13:17:45.991Z,6.63
2023-02-13T13:20:23.069Z,8.23
2023-02-13T13:22:54.850Z,9.30
2023-02-13T13:25:26.372Z,28.38
2023-02-13T13:27:54.360Z,8.52
2023-02-13T13:30:22.796Z,28.88
2023-02-13T13:32:51.336Z,8.05
2023-02-13T13:35:18.478Z,6.70
2023-02-13T13:37:47.678Z,8.15
2023-02-13T13:40:14.917Z,10.27
2023-02-13T13:42:48.675Z,9.68
2023-02-13T13:45:18.799Z,8.57
2023-02-13T13:47:51.823Z,7.78
2023-02-13T13:50:25.778Z,7.43
2023-02-13T13:53:09.424Z,7.60
2023-02-13T13:55:48.778Z,6.50
2023-02-13T13:58:22.490Z,7.38
2023-02-13T14:01:09.877Z,6.50
2023-02-13T14:03:37.305Z,7.43
2023-02-13T14:06:05.679Z,7.30
2023-02-13T14:08:42.213Z,5.63
2023-02-13T14:11:28.310Z,6.60
2023-02-13T14:13:55.412Z,6.80
2023-02-13T14:16:38.548Z,8.35
2023-02-13T14:19:05.694Z,7.13
2023-02-13T14:21:32.811Z,5.97
2023-02-13T14:24:03.961Z,6.32
2023-02-13T14:26:32.348Z,5.72
2023-02-13T14:29:00.599Z,5.70
2023-02-13T14:31:39.985Z,4.72
2023-02-13T14:34:08.195Z,6.15
2023-02-13T14:36:38.937Z,5.78
2023-02-13T14:39:25.730Z,6.85
2023-02-13T14:41:55.754Z,7.43
2023-02-13T14:44:27.236Z,5.70
2023-02-13T14:46:54.645Z,5.45
2023-02-13T14:49:23.413Z,7.97
2023-02-13T14:51:51.938Z,6.07
2023-02-13T14:54:19.324Z,4.80
2023-02-13T14:56:47.402Z,7.57
2023-02-13T14:59:17.741Z,8.05
2023-02-13T15:01:47.563Z,5.25
2023-02-13T15:06:43.096Z,5.30
2023-02-13T15:09:25.489Z,3.80
2023-02-13T15:11:52.576Z,5.63
2023-02-13T15:14:23.808Z,4.05
2023-02-13T15:16:52.615Z,4.15
2023-02-13T15:19:20.271Z,4.88
2023-02-13T15:21:48.170Z,5.47
2023-02-13T15:24:15.251Z,6.53
2023-02-13T15:26:42.337Z,5.95
2023-02-13T15:29:25.936Z,4.53
2023-02-13T15:31:54.032Z,4.28
2023-02-13T15:34:25.690Z,4.38
2023-02-13T15:36:53.051Z,3.75
2023-02-13T15:39:21.421Z,6.53
2023-02-13T15:41:52.434Z,6.53
2023-02-13T15:44:39.796Z,4.72
2023-02-13T15:47:08.308Z,5.90
2023-02-13T15:49:38.618Z,4.43
2023-02-13T15:54:33.212Z,4.32
2023-02-13T15:57:01.031Z,8.15
2023-02-13T15:59:30.615Z,6.28
2023-02-13T16:01:58.122Z,4.73
2023-02-13T16:04:25.222Z,5.22
2023-02-13T16:06:52.794Z,6.95
2023-02-13T16:09:38.007Z,7.25
2023-02-13T16:12:06.418Z,4.50
2023-02-13T16:14:35.055Z,6.95
2023-02-13T16:17:03.121Z,5.75
2023-02-13T16:19:48.668Z,5.90
2023-02-13T16:22:17.568Z,5.70
2023-02-13T16:24:49.203Z,8.05
2023-02-13T16:27:16.268Z,7.50
2023-02-13T16:29:48.956Z,7.97
2023-02-13T16:32:19.061Z,6.60
2023-02-13T16:34:46.157Z,6.38
2023-02-13T16:37:32.487Z,6.90
2023-02-13T16:40:19.528Z,5.22
2023-02-13T16:42:46.557Z,8.68
2023-02-13T16:45:23.297Z,7.10
2023-02-13T16:47:59.943Z,7.10
2023-02-13T16:50:26.967Z,7.35
2023-02-13T16:52:54.020Z,6.82
2023-02-13T16:55:21.054Z,9.52
2023-02-13T16:57:48.100Z,11.63
2023-02-13T17:00:24.419Z,9.35
2023-02-13T17:02:52.802Z,11.48
2023-02-13T17:05:25.891Z,8.15
2023-02-13T17:07:54.550Z,8.60
2023-02-13T17:10:27.203Z,6.53
2023-02-13T17:12:55.012Z,6.47
2023-02-13T17:15:23.041Z,8.38
2023-02-13T17:17:53.731Z,8.55
2023-02-13T17:20:33.898Z,12.45
2023-02-13T17:23:01.723Z,11.98
2023-02-13T17:25:28.804Z,11.57
2023-02-13T17:27:56.874Z,32.85
2023-02-13T17:30:24.882Z,20.02
2023-02-13T17:32:54.366Z,13.73
2023-02-13T17:35:21.393Z,15.18
2023-02-13T17:37:48.480Z,15.70
2023-02-13T17:40:16.449Z,14.88
2023-02-13T17:42:44.021Z,17.42
2023-02-13T17:45:11.529Z,16.42
2023-02-13T17:47:38.657Z,16.48
2023-02-13T17:50:10.571Z,18.58
2023-02-13T17:52:38.051Z,14.88
2023-02-13T17:55:05.477Z,21.10
2023-02-13T17:57:32.556Z,16.48
2023-02-13T18:00:03.413Z,18.92
2023-02-13T18:02:30.590Z,14.57
2023-02-13T18:04:57.816Z,15.82
2023-02-13T18:07:24.853Z,14.48
2023-02-13T18:09:52.321Z,17.63
2023-02-13T18:12:23.965Z,15.73
2023-02-13T18:14:51.347Z,15.30
2023-02-13T18:17:18.826Z,16.15
2023-02-13T18:19:47.026Z,12.88
2023-02-13T18:22:14.079Z,12.52
2023-02-13T18:24:41.657Z,10.80
2023-02-13T18:27:09.113Z,14.82
2023-02-13T18:29:37.321Z,12.75
2023-02-13T18:32:04.891Z,13.00
2023-02-13T18:34:32.140Z,11.73
2023-02-13T18:36:59.254Z,13.30
2023-02-13T18:39:26.334Z,12.15
2023-02-13T18:41:53.513Z,13.50
2023-02-13T18:44:28.414Z,15.02
2023-02-13T18:46:55.909Z,13.68
2023-02-13T18:49:22.945Z,12.18
2023-02-13T18:51:50.314Z,16.17
2023-02-13T18:54:18.039Z,16.52
2023-02-13T18:56:45.761Z,19.20
2023-02-13T18:59:12.818Z,14.82
2023-02-13T19:01:39.883Z,16.50
2023-02-13T19:04:07.052Z,22.35
2023-02-13T19:06:34.109Z,17.52
2023-02-13T19:09:01.308Z,16.02
2023-02-13T19:11:34.285Z,15.57
2023-02-13T19:14:02.350Z,17.98
2023-02-13T19:16:29.896Z,20.48
2023-02-13T19:18:57.798Z,23.20
2023-02-13T19:21:25.926Z,23.42
2023-02-13T19:23:53.255Z,22.35
2023-02-13T19:26:21.170Z,21.27
2023-02-13T19:28:48.571Z,23.85
2023-02-13T19:31:17.593Z,19.10
2023-02-13T19:33:44.862Z,26.33
2023-02-13T19:36:12.655Z,26.52
2023-02-13T19:38:41.115Z,26.52
2023-02-13T19:41:08.732Z,20.48
2023-02-13T19:43:35.819Z,23.48
2023-02-13T19:46:04.790Z,28.80
2023-02-13T19:48:32.429Z,28.50
2023-02-13T19:50:59.685Z,27.15
2023-02-13T19:53:27.469Z,23.15
2023-02-13T19:56:01.133Z,19.58
2023-02-13T19:58:28.186Z,19.02
2023-02-13T20:00:55.328Z,18.27
2023-02-13T20:03:22.441Z,22.58
2023-02-13T20:05:52.229Z,20.92
2023-02-13T20:08:19.306Z,22.50
2023-02-13T20:10:46.458Z,20.77
2023-02-13T20:13:13.597Z,19.45
2023-02-13T20:15:41.541Z,18.05
2023-02-13T20:18:08.597Z,19.42
2023-02-13T20:20:35.679Z,19.30
2023-02-13T20:23:02.768Z,18.25
2023-02-13T20:25:32.168Z,17.50
2023-02-13T20:27:59.969Z,21.42
2023-02-13T20:30:27.037Z,16.77
2023-02-13T20:32:54.155Z,20.63
2023-02-13T20:35:21.411Z,19.23
2023-02-13T20:37:51.495Z,21.92
2023-02-13T20:40:18.667Z,21.73
2023-02-13T20:42:45.736Z,26.08
2023-02-13T20:45:15.806Z,31.90
2023-02-13T20:47:43.266Z,29.38
2023-02-13T20:50:10.434Z,27.58
2023-02-13T20:52:37.654Z,23.67
2023-02-13T20:55:05.394Z,23.80
2023-02-13T20:57:35.805Z,22.42
2023-02-13T21:00:04.598Z,24.13
2023-02-13T21:02:31.789Z,21.83
2023-02-13T21:04:58.953Z,27.98
2023-02-13T21:07:26.127Z,23.77
2023-02-13T21:09:53.245Z,21.30
2023-02-13T21:12:20.303Z,22.45
2023-02-13T21:14:47.364Z,18.73
2023-02-13T21:17:14.497Z,22.55
2023-02-13T21:19:41.557Z,19.20
2023-02-13T21:22:12.087Z,25.70
2023-02-13T21:27:06.209Z,20.45
2023-02-13T21:29:33.321Z,22.75
2023-02-13T21:32:00.489Z,19.15
2023-02-13T21:34:27.744Z,26.70
2023-02-13T21:36:54.801Z,26.55
2023-02-13T21:39:21.913Z,30.70
2023-02-13T21:41:49.023Z,26.05
2023-02-13T21:44:16.181Z,28.23
2023-02-13T21:46:43.566Z,40.22
2023-02-13T21:49:12.184Z,24.73
2023-02-13T21:51:39.205Z,21.00
2023-02-13T21:54:06.243Z,24.85
2023-02-13T21:56:34.137Z,30.60
2023-02-13T21:59:01.316Z,29.83
2023-02-13T22:01:29.492Z,36.42
2023-02-13T22:03:59.162Z,29.13
2023-02-13T22:06:27.599Z,26.05
2023-02-13T22:08:58.254Z,28.33
2023-02-13T22:13:55.448Z,30.05
2023-02-13T22:16:22.705Z,26.83
2023-02-13T22:18:50.594Z,26.85
2023-02-13T22:21:18.402Z,29.83
2023-02-13T22:23:45.580Z,28.85
2023-02-13T22:26:16.269Z,34.28
2023-02-13T22:28:43.439Z,32.75
2023-02-13T22:31:10.752Z,29.83
2023-02-13T22:33:37.902Z,31.40
2023-02-13T22:36:05.176Z,36.45
2023-02-13T22:38:33.081Z,45.67
2023-02-13T22:41:07.072Z,33.13
2023-02-13T22:43:34.264Z,25.67
2023-02-13T22:46:07.813Z,31.75
2023-02-13T22:48:37.991Z,33.13
2023-02-13T22:51:05.588Z,32.38
2023-02-13T22:53:32.744Z,35.67
2023-02-13T22:55:59.971Z,31.48
2023-02-13T22:58:26.981Z,29.27
2023-02-13T23:00:54.258Z,29.55
2023-02-13T23:03:21.408Z,35.00
2023-02-13T23:05:48.511Z,33.67
2023-02-13T23:08:15.617Z,27.83
2023-02-13T23:10:42.683Z,23.42
2023-02-13T23:13:10.415Z,22.90
2023-02-13T23:15:37.833Z,19.35
2023-02-13T23:18:14.181Z,21.55
2023-02-13T23:20:41.761Z,21.45
2023-02-13T23:23:08.904Z,22.23
2023-02-13T23:25:36.256Z,20.40
2023-02-13T23:28:03.366Z,19.75
2023-02-13T23:30:30.662Z,21.92
2023-02-13T23:32:58.192Z,21.90
2023-02-13T23:35:25.259Z,22.45
2023-02-13T23:37:52.382Z,21.40
2023-02-13T23:40:19.522Z,20.65
2023-02-13T23:42:46.653Z,21.85
2023-02-13T23:45:13.701Z,21.05
2023-02-13T23:47:40.797Z,24.98
2023-02-13T23:50:08.617Z,23.65
2023-02-13T23:52:35.696Z,25.05
2023-02-13T23:55:02.770Z,24.77
2023-02-13T23:57:29.821Z,22.55
2023-02-13T23:59:56.896Z,27.23
